createdAt,value
2022-10-02T00:00:00.612Z,16.40
2022-10-02T00:02:34.341Z,16.65
2022-10-02T00:05:06.393Z,15.40
2022-10-02T00:07:42.242Z,12.43
2022-10-02T00:10:16.530Z,11.85
2022-10-02T00:12:45.996Z,14.13
2022-10-02T00:15:17.751Z,13.20
2022-10-02T00:17:48.610Z,15.30
2022-10-02T00:20:21.104Z,14.07
2022-10-02T00:22:55.883Z,12.90
2022-10-02T00:25:28.353Z,14.73
2022-10-02T00:28:19.405Z,15.00
2022-10-02T00:30:59.810Z,13.35
2022-10-02T00:33:34.602Z,13.10
2022-10-02T00:36:18.080Z,13.90
2022-10-02T00:38:55.744Z,14.13
2022-10-02T00:41:46.493Z,12.38
2022-10-02T00:44:25.337Z,14.13
2022-10-02T00:46:58.971Z,11.93
2022-10-02T00:49:41.699Z,14.18
2022-10-02T00:52:20.909Z,15.93
2022-10-02T00:55:05.572Z,19.75
2022-10-02T00:57:44.369Z,17.60
2022-10-02T01:00:14.302Z,13.57
2022-10-02T01:03:10.549Z,11.15
2022-10-02T01:05:40.245Z,15.45
2022-10-02T01:08:09.664Z,15.47
2022-10-02T01:10:39.616Z,13.50
2022-10-02T01:13:08.889Z,12.13
2022-10-02T01:15:40.671Z,13.05
2022-10-02T01:18:12.497Z,18.17
2022-10-02T01:20:43.973Z,15.23
2022-10-02T01:23:20.962Z,13.75
2022-10-02T01:25:50.983Z,13.30
2022-10-02T01:30:52.250Z,18.25
2022-10-02T01:33:21.358Z,13.95
2022-10-02T01:35:50.612Z,14.88
2022-10-02T01:38:22.741Z,12.00
2022-10-02T01:40:52.485Z,14.90
2022-10-02T01:43:23.017Z,13.00
2022-10-02T01:48:31.125Z,14.80
2022-10-02T01:51:11.367Z,14.80
2022-10-02T01:53:46.020Z,14.80
2022-10-02T01:56:20.507Z,12.70
2022-10-02T01:58:56.225Z,17.27
2022-10-02T02:01:36.187Z,12.48
2022-10-02T02:04:11.065Z,12.48
2022-10-02T02:06:48.015Z,17.60
2022-10-02T02:09:20.782Z,17.63
2022-10-02T02:11:55.329Z,13.45
2022-10-02T02:14:27.286Z,12.57
2022-10-02T02:16:58.046Z,13.23
2022-10-02T02:19:30.763Z,16.83
2022-10-02T02:22:02.866Z,13.30
2022-10-02T02:24:35.690Z,13.40
2022-10-02T02:27:06.174Z,13.32
2022-10-02T02:29:36.403Z,13.07
2022-10-02T02:32:09.280Z,14.88
2022-10-02T02:34:41.446Z,15.52
2022-10-02T02:37:16.654Z,14.48
2022-10-02T02:39:48.847Z,14.15
2022-10-02T02:42:25.693Z,13.68
2022-10-02T02:44:57.197Z,13.90
2022-10-02T02:47:28.782Z,15.40
2022-10-02T02:50:00.629Z,14.02
2022-10-02T02:52:31.722Z,15.60
2022-10-02T02:55:06.293Z,14.35
2022-10-02T02:57:39.587Z,17.15
2022-10-02T03:00:09.767Z,14.50
2022-10-02T03:02:38.588Z,20.25
2022-10-02T03:05:13.733Z,14.25
2022-10-02T03:07:43.217Z,15.20
2022-10-02T03:10:17.934Z,14.90
2022-10-02T03:12:55.707Z,14.77
2022-10-02T03:15:29.779Z,13.23
2022-10-02T03:18:11.871Z,14.40
2022-10-02T03:20:44.446Z,16.05
2022-10-02T03:23:19.393Z,17.08
2022-10-02T03:25:53.787Z,14.68
2022-10-02T03:28:53.856Z,15.82
2022-10-02T03:31:17.332Z,19.13
2022-10-02T03:33:49.165Z,15.07
2022-10-02T03:38:56.924Z,15.23
2022-10-02T03:41:35.206Z,15.70
2022-10-02T03:44:05.532Z,17.35
2022-10-02T03:46:34.236Z,16.85
2022-10-02T03:49:03.296Z,15.13
2022-10-02T03:51:32.084Z,17.13
2022-10-02T03:54:00.924Z,15.05
2022-10-02T03:56:37.590Z,19.10
2022-10-02T03:59:13.741Z,17.30
2022-10-02T04:01:48.906Z,15.63
2022-10-02T04:04:21.392Z,18.48
2022-10-02T04:06:53.257Z,19.45
2022-10-02T04:09:24.703Z,17.25
2022-10-02T04:11:58.235Z,17.85
2022-10-02T04:14:31.925Z,20.67
2022-10-02T04:17:05.067Z,19.40
2022-10-02T04:19:38.918Z,19.60
2022-10-02T04:22:11.546Z,21.02
2022-10-02T04:24:44.749Z,20.92
2022-10-02T04:27:17.322Z,21.27
2022-10-02T04:29:52.828Z,22.25
2022-10-02T04:32:25.705Z,24.85
2022-10-02T04:34:54.679Z,26.48
2022-10-02T04:37:37.701Z,22.83
2022-10-02T04:40:23.022Z,23.70
2022-10-02T04:43:02.874Z,27.77
2022-10-02T04:45:48.113Z,24.58
2022-10-02T04:48:46.701Z,21.80
2022-10-02T04:51:25.775Z,25.55
2022-10-02T04:54:06.410Z,22.60
2022-10-02T04:57:03.282Z,21.52
2022-10-02T04:59:40.602Z,22.48
2022-10-02T05:02:22.142Z,21.95
2022-10-02T05:05:08.635Z,23.48
2022-10-02T05:07:54.803Z,22.65
2022-10-02T05:10:37.608Z,22.45
2022-10-02T05:13:15.004Z,22.77
2022-10-02T05:15:52.555Z,22.55
2022-10-02T05:18:42.589Z,24.52
2022-10-02T05:21:27.762Z,23.02
2022-10-02T05:24:10.509Z,23.58
2022-10-02T05:26:57.987Z,25.85
2022-10-02T05:29:41.771Z,22.42
2022-10-02T05:32:22.681Z,22.65
2022-10-02T05:35:11.403Z,21.08
2022-10-02T05:37:52.561Z,21.48
2022-10-02T05:40:26.040Z,21.95
2022-10-02T05:43:02.690Z,21.23
2022-10-02T05:45:33.987Z,20.88
2022-10-02T05:48:08.546Z,20.55
2022-10-02T05:50:39.598Z,22.20
2022-10-02T05:53:15.367Z,23.50
2022-10-02T05:55:48.401Z,23.88
2022-10-02T05:58:22.534Z,24.05
2022-10-02T06:00:53.983Z,22.17
2022-10-02T06:03:27.382Z,25.48
2022-10-02T06:06:01.662Z,25.55
2022-10-02T06:08:34.478Z,25.35
2022-10-02T06:11:09.508Z,22.02
2022-10-02T06:13:42.504Z,23.70
2022-10-02T06:16:16.110Z,24.67
2022-10-02T06:18:50.286Z,22.45
2022-10-02T06:21:26.840Z,21.52
2022-10-02T06:23:58.020Z,22.77
2022-10-02T06:26:30.493Z,21.05
2022-10-02T06:29:02.645Z,20.55
2022-10-02T06:31:37.607Z,23.30
2022-10-02T06:34:08.694Z,22.02
2022-10-02T06:36:50.434Z,17.05
2022-10-02T06:39:42.464Z,14.20
2022-10-02T06:42:20.899Z,16.17
2022-10-02T06:44:57.140Z,16.70
2022-10-02T06:47:35.522Z,20.90
2022-10-02T06:50:19.442Z,17.60
2022-10-02T06:52:57.140Z,16.02
2022-10-02T06:55:35.397Z,18.98
2022-10-02T06:58:23.328Z,18.35
2022-10-02T07:00:57.028Z,17.92
2022-10-02T07:03:45.903Z,17.08
2022-10-02T07:06:22.207Z,19.00
2022-10-02T07:09:20.998Z,15.82
2022-10-02T07:11:55.572Z,17.70
2022-10-02T07:14:42.281Z,17.50
2022-10-02T07:17:27.868Z,14.48
2022-10-02T07:20:11.616Z,13.63
2022-10-02T07:22:51.342Z,14.25
2022-10-02T07:25:41.683Z,15.18
2022-10-02T07:28:15.392Z,11.45
2022-10-02T07:30:53.674Z,10.32
2022-10-02T07:33:31.314Z,10.65
2022-10-02T07:36:05.420Z,12.80
2022-10-02T07:39:02.769Z,10.52
2022-10-02T07:41:57.921Z,12.13
2022-10-02T07:44:41.874Z,6.80
2022-10-02T07:47:18.755Z,9.00
2022-10-02T07:49:52.505Z,10.30
2022-10-02T07:52:29.840Z,10.23
2022-10-02T07:55:11.074Z,9.40
2022-10-02T07:57:45.699Z,8.60
2022-10-02T08:00:16.220Z,5.45
2022-10-02T08:02:49.350Z,14.27
2022-10-02T08:05:21.454Z,8.80
2022-10-02T08:07:51.137Z,9.23
2022-10-02T08:10:25.798Z,11.65
2022-10-02T08:13:01.408Z,8.60
2022-10-02T08:15:33.583Z,5.75
2022-10-02T08:18:30.091Z,11.85
2022-10-02T08:20:57.503Z,8.70
2022-10-02T08:23:30.038Z,8.77
2022-10-02T08:26:04.832Z,10.73
2022-10-02T08:28:41.141Z,7.22
2022-10-02T08:31:12.294Z,7.25
2022-10-02T08:33:41.039Z,10.73
2022-10-02T08:36:44.432Z,8.00
2022-10-02T08:39:24.538Z,9.75
2022-10-02T08:42:11.606Z,9.13
2022-10-02T08:45:20.497Z,7.78
2022-10-02T08:48:30.402Z,11.82
2022-10-02T08:51:37.987Z,15.50
2022-10-02T08:54:42.120Z,11.52
2022-10-02T08:57:30.615Z,8.52
2022-10-02T09:00:10.718Z,8.52
2022-10-02T09:03:25.971Z,10.30
2022-10-02T09:06:43.299Z,6.43
2022-10-02T09:09:46.049Z,7.15
2022-10-02T09:12:40.195Z,11.00
2022-10-02T09:15:17.109Z,10.27
2022-10-02T09:17:48.802Z,10.85
2022-10-02T09:20:37.931Z,4.88
2022-10-02T09:23:57.522Z,7.00
2022-10-02T09:26:37.977Z,6.57
2022-10-02T09:29:48.810Z,9.23
2022-10-02T09:35:41.373Z,10.75
2022-10-02T09:38:55.928Z,7.30
2022-10-02T09:42:07.301Z,8.52
2022-10-02T09:45:03.491Z,8.30
2022-10-02T09:48:01.601Z,10.02
2022-10-02T09:50:50.002Z,8.25
2022-10-02T09:53:56.591Z,8.40
2022-10-02T09:57:17.262Z,6.00
2022-10-02T10:00:00.277Z,7.57
2022-10-02T10:03:01.327Z,7.07
2022-10-02T10:05:50.772Z,7.28
2022-10-02T10:08:44.476Z,12.88
2022-10-02T10:11:40.079Z,7.53
2022-10-02T10:14:30.694Z,9.13
2022-10-02T10:20:08.958Z,7.43
2022-10-02T10:23:03.710Z,6.25
2022-10-02T10:25:52.202Z,8.02
2022-10-02T10:28:52.765Z,8.45
2022-10-02T10:32:11.983Z,5.57
2022-10-02T10:35:16.337Z,6.53
2022-10-02T10:38:34.205Z,6.03
2022-10-02T10:41:48.772Z,4.32
2022-10-02T10:44:33.215Z,9.93
2022-10-02T10:47:18.321Z,7.13
2022-10-02T10:50:18.085Z,9.40
2022-10-02T10:53:11.758Z,8.05
2022-10-02T10:56:28.431Z,8.77
2022-10-02T10:59:25.691Z,9.75
2022-10-02T11:02:06.086Z,9.63
2022-10-02T11:05:01.325Z,8.77
2022-10-02T11:07:44.538Z,9.50
2022-10-02T11:10:21.802Z,11.07
2022-10-02T11:13:19.375Z,9.70
2022-10-02T11:16:18.923Z,12.70
2022-10-02T11:19:21.507Z,15.13
2022-10-02T11:22:08.542Z,7.32
2022-10-02T11:24:56.752Z,8.90
2022-10-02T11:27:50.165Z,5.75
2022-10-02T11:30:22.673Z,7.68
2022-10-02T11:33:22.928Z,10.32
2022-10-02T11:36:04.646Z,6.22
2022-10-02T11:38:57.385Z,7.72
2022-10-02T11:41:45.432Z,6.60
2022-10-02T11:44:29.659Z,7.07
2022-10-02T11:47:29.754Z,4.65
2022-10-02T11:50:35.145Z,4.72
2022-10-02T11:53:23.990Z,7.50
2022-10-02T11:56:03.489Z,6.63
2022-10-02T11:58:45.488Z,11.95
2022-10-02T12:01:24.483Z,8.10
2022-10-02T12:03:59.292Z,11.05
2022-10-02T12:06:43.144Z,11.15
2022-10-02T12:09:18.133Z,8.85
2022-10-02T12:11:53.605Z,9.88
2022-10-02T12:14:30.166Z,8.98
2022-10-02T12:17:09.490Z,5.18
2022-10-02T12:20:03.316Z,14.67
2022-10-02T12:22:53.512Z,7.32
2022-10-02T12:25:49.436Z,8.15
2022-10-02T12:28:22.152Z,6.05
2022-10-02T12:30:55.565Z,9.13
2022-10-02T12:33:33.613Z,11.18
2022-10-02T12:36:25.287Z,8.45
2022-10-02T12:39:06.289Z,6.13
2022-10-02T12:41:50.918Z,7.82
2022-10-02T12:44:45.010Z,8.25
2022-10-02T12:47:38.577Z,8.60
2022-10-02T12:50:21.917Z,11.05
2022-10-02T12:53:22.579Z,12.70
2022-10-02T12:56:16.418Z,7.80
2022-10-02T12:58:54.454Z,13.75
2022-10-02T13:02:00.336Z,8.95
2022-10-02T13:05:01.018Z,8.55
2022-10-02T13:08:07.731Z,9.85
2022-10-02T13:10:40.767Z,10.88
2022-10-02T13:13:25.037Z,10.48
2022-10-02T13:15:59.356Z,10.73
2022-10-02T13:18:53.343Z,10.77
2022-10-02T13:21:26.830Z,11.93
2022-10-02T13:24:09.786Z,14.38
2022-10-02T13:26:42.856Z,7.38
2022-10-02T13:29:22.399Z,6.63
2022-10-02T13:32:00.566Z,11.35
2022-10-02T13:34:50.477Z,13.52
2022-10-02T13:37:26.569Z,10.57
2022-10-02T13:40:25.893Z,11.93
2022-10-02T13:43:22.629Z,7.45
2022-10-02T13:45:57.894Z,14.68
2022-10-02T13:48:35.410Z,7.60
2022-10-02T13:51:07.839Z,11.35
2022-10-02T13:54:01.396Z,7.80
2022-10-02T13:56:48.098Z,9.10
2022-10-02T13:59:33.641Z,7.35
2022-10-02T14:02:23.449Z,7.63
2022-10-02T14:04:57.464Z,8.27
2022-10-02T14:07:44.927Z,11.98
2022-10-02T14:10:24.033Z,11.15
2022-10-02T14:13:06.228Z,11.80
2022-10-02T14:15:51.076Z,7.78
2022-10-02T14:18:43.066Z,11.77
2022-10-02T14:21:20.058Z,11.48
2022-10-02T14:24:03.795Z,13.85
2022-10-02T14:26:43.535Z,9.27
2022-10-02T14:29:23.365Z,10.80
2022-10-02T14:32:05.515Z,9.57
2022-10-02T14:35:11.859Z,6.60
2022-10-02T14:37:55.584Z,12.07
2022-10-02T14:40:31.346Z,5.75
2022-10-02T14:43:15.742Z,13.38
2022-10-02T14:46:18.826Z,6.60
2022-10-02T14:49:01.175Z,10.63
2022-10-02T14:51:44.151Z,8.27
2022-10-02T14:54:24.786Z,7.15
2022-10-02T14:57:16.221Z,9.70
2022-10-02T15:00:27.027Z,7.10
2022-10-02T15:03:25.767Z,12.88
2022-10-02T15:06:23.585Z,7.95
2022-10-02T15:08:57.630Z,10.18
2022-10-02T15:11:49.421Z,8.45
2022-10-02T15:14:21.411Z,9.68
2022-10-02T15:17:16.871Z,7.13
2022-10-02T15:19:50.391Z,8.25
2022-10-02T15:22:22.119Z,7.38
2022-10-02T15:24:56.476Z,11.60
2022-10-02T15:27:26.720Z,6.60
2022-10-02T15:30:07.172Z,7.63
2022-10-02T15:33:11.914Z,8.65
2022-10-02T15:35:55.541Z,6.43
2022-10-02T15:38:45.026Z,10.07
2022-10-02T15:41:32.164Z,8.32
2022-10-02T15:44:09.122Z,6.22
2022-10-02T15:46:44.791Z,5.75
2022-10-02T15:49:16.415Z,9.20
2022-10-02T15:51:55.672Z,8.52
2022-10-02T15:54:33.059Z,9.50
2022-10-02T15:57:13.367Z,10.13
2022-10-02T15:59:55.781Z,9.38
2022-10-02T16:02:57.442Z,8.80
2022-10-02T16:05:39.569Z,15.02
2022-10-02T16:08:24.005Z,15.07
2022-10-02T16:11:09.905Z,12.00
2022-10-02T16:13:47.623Z,13.77
2022-10-02T16:16:47.888Z,12.15
2022-10-02T16:19:22.140Z,11.25
2022-10-02T16:22:06.396Z,10.35
2022-10-02T16:24:50.122Z,10.80
2022-10-02T16:27:34.036Z,12.38
2022-10-02T16:30:13.585Z,16.80
2022-10-02T16:33:04.487Z,9.63
2022-10-02T16:36:19.093Z,17.13
2022-10-02T16:38:50.695Z,13.65
2022-10-02T16:41:38.517Z,16.67
2022-10-02T16:44:31.684Z,12.65
2022-10-02T16:47:06.877Z,16.15
2022-10-02T16:49:46.877Z,17.35
2022-10-02T16:52:20.123Z,15.88
2022-10-02T16:54:52.086Z,19.10
2022-10-02T16:57:29.505Z,12.13
2022-10-02T17:00:06.274Z,15.30
2022-10-02T17:02:43.565Z,17.33
2022-10-02T17:05:18.120Z,22.13
2022-10-02T17:07:54.954Z,24.70
2022-10-02T17:10:32.836Z,26.83
2022-10-02T17:13:16.221Z,23.60
2022-10-02T17:15:48.418Z,24.33
2022-10-02T17:18:26.193Z,28.33
2022-10-02T17:20:57.818Z,33.85
2022-10-02T17:23:29.537Z,34.80
2022-10-02T17:26:03.250Z,39.35
2022-10-02T17:28:39.266Z,31.77
2022-10-02T17:31:25.040Z,29.45
2022-10-02T17:33:57.017Z,35.15
2022-10-02T17:36:33.958Z,33.05
2022-10-02T17:39:28.730Z,31.40
2022-10-02T17:41:59.611Z,39.70
2022-10-02T17:44:43.090Z,36.72
2022-10-02T17:47:30.875Z,36.83
2022-10-02T17:50:08.536Z,31.95
2022-10-02T17:53:00.469Z,29.00
2022-10-02T17:56:09.470Z,22.38
2022-10-02T17:58:41.940Z,24.45
2022-10-02T18:01:19.439Z,25.90
2022-10-02T18:03:55.469Z,27.73
2022-10-02T18:06:32.452Z,21.77
2022-10-02T18:09:14.181Z,25.80
2022-10-02T18:12:10.973Z,30.48
2022-10-02T18:15:03.871Z,27.15
2022-10-02T18:17:44.176Z,29.60
2022-10-02T18:20:21.016Z,28.17
2022-10-02T18:23:00.863Z,36.88
2022-10-02T18:25:39.763Z,40.10
2022-10-02T18:28:20.933Z,42.97
2022-10-02T18:30:57.224Z,45.85
2022-10-02T18:33:40.741Z,43.35
2022-10-02T18:36:35.004Z,42.17
2022-10-02T18:39:14.299Z,42.25
2022-10-02T18:41:52.671Z,40.72
2022-10-02T18:44:34.362Z,38.13
2022-10-02T18:47:08.421Z,42.58
2022-10-02T18:49:49.185Z,38.17
2022-10-02T18:52:51.273Z,37.70
2022-10-02T18:55:45.175Z,33.45
2022-10-02T18:58:24.259Z,34.17
2022-10-02T19:01:07.796Z,36.60
2022-10-02T19:03:44.470Z,27.27
2022-10-02T19:06:17.352Z,34.53
2022-10-02T19:09:12.704Z,28.20
2022-10-02T19:11:45.760Z,32.35
2022-10-02T19:14:16.375Z,30.83
2022-10-02T19:16:59.101Z,26.63
2022-10-02T19:19:29.278Z,24.88
2022-10-02T19:22:02.658Z,25.13
2022-10-02T19:24:34.440Z,15.50
2022-10-02T19:27:07.682Z,18.50
2022-10-02T19:29:39.424Z,16.45
2022-10-02T19:32:13.259Z,12.93
2022-10-02T19:34:42.395Z,13.27
2022-10-02T19:37:16.454Z,13.17
2022-10-02T19:39:50.908Z,13.20
2022-10-02T19:42:25.356Z,14.18
2022-10-02T19:44:57.213Z,10.40
2022-10-02T19:47:29.428Z,10.65
2022-10-02T19:49:59.815Z,15.70
2022-10-02T19:52:48.294Z,8.55
2022-10-02T19:55:22.732Z,12.60
2022-10-02T19:57:54.191Z,11.80
2022-10-02T20:00:23.607Z,11.27
2022-10-02T20:02:55.037Z,10.30
2022-10-02T20:05:26.596Z,10.30
2022-10-02T20:08:07.736Z,10.45
2022-10-02T20:10:38.883Z,17.23
2022-10-02T20:13:14.538Z,9.85
2022-10-02T20:16:04.694Z,15.05
2022-10-02T20:18:34.424Z,20.10
2022-10-02T20:21:07.997Z,16.93
2022-10-02T20:23:38.895Z,14.45
2022-10-02T20:26:09.545Z,14.35
2022-10-02T20:28:43.837Z,17.95
2022-10-02T20:31:16.340Z,11.18
2022-10-02T20:33:48.454Z,19.02
2022-10-02T20:36:18.710Z,11.20
2022-10-02T20:38:52.420Z,14.45
2022-10-02T20:41:25.402Z,17.33
2022-10-02T20:44:02.243Z,20.13
2022-10-02T20:46:53.593Z,14.55
2022-10-02T20:49:49.975Z,13.82
2022-10-02T20:52:41.332Z,19.98
2022-10-02T20:55:19.815Z,20.13
2022-10-02T20:58:17.832Z,16.05
2022-10-02T21:01:06.548Z,16.50
2022-10-02T21:03:51.657Z,11.40
2022-10-02T21:06:40.214Z,21.48
2022-10-02T21:09:46.434Z,18.38
2022-10-02T21:12:52.405Z,8.32
2022-10-02T21:16:05.791Z,11.68
2022-10-02T21:18:49.862Z,7.25
2022-10-02T21:21:37.759Z,6.57
2022-10-02T21:24:19.441Z,7.55
2022-10-02T21:27:14.877Z,5.95
2022-10-02T21:29:57.537Z,5.38
2022-10-02T21:32:41.818Z,5.57
2022-10-02T21:35:34.263Z,9.48
2022-10-02T21:38:20.868Z,10.27
2022-10-02T21:41:07.479Z,6.75
2022-10-02T21:44:21.653Z,4.55
2022-10-02T21:47:24.808Z,6.93
2022-10-02T21:50:37.866Z,5.03
2022-10-02T21:53:52.070Z,7.03
2022-10-02T21:57:04.646Z,5.97
2022-10-02T21:59:52.055Z,5.97
2022-10-02T22:02:40.452Z,7.97
2022-10-02T22:05:29.867Z,4.35
2022-10-02T22:08:04.980Z,10.00
2022-10-02T22:10:39.530Z,7.40
2022-10-02T22:13:21.383Z,5.75
2022-10-02T22:15:56.413Z,5.53
2022-10-02T22:18:32.667Z,6.40
2022-10-02T22:21:23.793Z,4.47
2022-10-02T22:24:07.649Z,4.82
2022-10-02T22:26:49.528Z,9.70
2022-10-02T22:29:21.776Z,7.15
2022-10-02T22:32:21.673Z,6.38
2022-10-02T22:34:57.963Z,16.85
2022-10-02T22:37:59.892Z,6.13
2022-10-02T22:40:33.400Z,7.28
2022-10-02T22:43:05.835Z,8.60
2022-10-02T22:45:39.077Z,10.05
2022-10-02T22:48:13.381Z,7.97
2022-10-02T22:50:50.933Z,6.07
2022-10-02T22:53:24.938Z,14.18
2022-10-02T22:55:55.840Z,6.57
2022-10-02T22:58:31.889Z,11.95
2022-10-02T23:01:07.484Z,7.47
2022-10-02T23:03:40.300Z,6.90
2022-10-02T23:06:20.393Z,10.32
2022-10-02T23:08:56.340Z,9.18
2022-10-02T23:11:28.186Z,9.98
2022-10-02T23:14:00.927Z,14.38
2022-10-02T23:16:35.778Z,10.45
2022-10-02T23:19:12.142Z,7.15
2022-10-02T23:21:47.982Z,10.70
2022-10-02T23:24:24.555Z,9.52
2022-10-02T23:26:56.816Z,12.05
2022-10-02T23:29:35.762Z,10.57
2022-10-02T23:32:10.452Z,8.88
2022-10-02T23:34:42.491Z,17.17
2022-10-02T23:37:20.538Z,9.48
2022-10-02T23:39:55.586Z,10.68
2022-10-02T23:42:28.355Z,10.13
2022-10-02T23:45:01.295Z,14.27
2022-10-02T23:47:36.948Z,10.43
2022-10-02T23:50:19.747Z,13.45
2022-10-02T23:53:20.555Z,11.10
2022-10-02T23:56:01.364Z,9.52
2022-10-02T23:58:47.635Z,11.13
